Latest Weather Observations for Nambour

IDQ60801

Issued at 1:32 pm EST Saturday 25 March 2017 (issued every 30 minutes, with the page automatically refreshed every 10 minutes)

About weather observations | Map of weather stations | Latest weather observations for QLD | Other Formats
Station Details ID: 040988 Name: NAMBOUR DAFF - HILLSIDE Lat: -26.64 Lon: 152.94 Height: 53.24 m
Data from the previous 72 hours. | See also: Recent months at Nambour
Date/Time
EST
Temp
°C
App
Temp
°C
Dew
Point
°C
Rel
Hum
%
Delta-T
°C
Wind Press
QNH
hPa
Press
MSL
hPa
Rain since
9am
mm
Dir  Spd
km/h
Gust
km/h
Spd
kts
Gust
kts
25/01:30pm 26.0 27.9 18.9 65 4.5 SE 7 17 4 9 1014.6 1014.3 0.4
25/01:00pm 26.1 28.9 19.7 68 4.1 SSE 4 9 2 5 1014.7 1014.4 0.4
25/12:30pm 26.1 28.5 19.7 68 4.2 SE 6 11 3 6 1015.1 1014.8 0.4
25/12:00pm 25.0 27.4 20.0 74 3.2 SE 7 19 4 10 1015.8 1015.5 0.4
25/11:30am 24.5 28.1 21.2 82 2.2 ESE 4 6 2 3 1016.2 1015.9 0.4
25/11:00am 24.7 29.3 22.4 87 1.5 W 2 4 1 2 1016.6 1016.3 0.4
25/10:30am 23.6 27.8 21.7 89 1.3 S 2 4 1 2 1016.9 1016.7 0.4
25/10:00am 23.1 27.1 21.4 90 1.1 W 2 6 1 3 1016.9 1016.7 0.2
25/09:30am 23.3 26.6 20.8 86 1.6 ESE 4 7 2 4 1016.9 1016.7 0.0
25/09:00am 23.1 26.5 21.0 88 1.4 SE 4 9 2 5 1016.8 1016.6 6.2
25/08:30am 22.8 26.3 21.1 90 1.1 N 4 9 2 5 1016.7 1016.5 6.0
25/08:00am 22.2 25.6 21.0 93 0.8 SSE 4 7 2 4 1016.2 1015.9 6.0
25/07:30am 21.8 25.5 20.8 94 0.7 NW 2 6 1 3 1015.8 1015.5 6.0
25/07:00am 21.6 24.4 20.4 93 0.8 SW 6 13 3 7 1015.4 1015.1 5.8
25/06:30am 21.8 25.5 20.8 94 0.7 ESE 2 7 1 4 1015.3 1015.0 5.8
25/06:00am 21.8 25.9 20.8 94 0.7 CALM 0 6 0 3 1015.0 1014.7 5.0
25/05:30am 21.8 25.5 20.8 94 0.7 WSW 2 6 1 3 1014.6 1014.3 4.4
25/05:00am 21.8 25.5 20.8 94 0.7 WSW 2 9 1 5 1014.3 1014.0 4.4
25/04:30am 21.7 25.4 20.7 94 0.6 E 2 7 1 4 1014.2 1013.9 4.2
25/04:00am 21.8 25.9 20.8 94 0.7 CALM 0 4 0 2 1014.2 1013.9 3.8
25/03:30am 22.0 25.8 21.0 94 0.7 ENE 2 4 1 2 1014.4 1014.1 3.4
25/03:00am 22.3 26.7 21.3 94 0.7 CALM 0 4 0 2 1014.4 1014.1 2.2
25/02:30am 22.2 25.8 21.2 94 0.7 SW 4 6 2 3 1014.7 1014.4 2.0
25/02:00am 22.2 25.8 21.2 94 0.7 SW 4 9 2 5 1014.9 1014.6 2.0
25/01:30am 22.2 25.8 21.2 94 0.7 W 4 11 2 6 1015.2 1014.9 2.0
25/01:00am 22.0 25.2 20.6 92 0.9 SW 4 9 2 5 1015.6 1015.3 2.0
25/12:30am 22.5 25.7 20.4 88 1.4 SSW 4 9 2 5 1015.7 1015.4 0.2
25/12:00am 22.6 26.4 20.9 90 1.1 SE 2 7 1 4 1015.9 1015.6 0.2
 
Date/Time
EST
Temp
°C
App
Temp
°C
Dew
Point
°C
Rel
Hum
%
Delta-T
°C
Wind Press
QNH
hPa
Press
MSL
hPa
Rain since
9am
mm
Dir  Spd
km/h
Gust
km/h
Spd
kts
Gust
kts
24/11:30pm 22.9 26.3 21.0 89 1.2 SW 4 9 2 5 1016.1 1015.8 0.2
24/11:00pm 23.0 26.5 21.1 89 1.2 NE 4 7 2 4 1016.1 1015.8 0.2
24/10:30pm 23.0 26.6 21.3 90 1.1 ESE 4 9 2 5 1016.1 1015.8 0.2
24/10:00pm 23.0 27.1 21.5 91 1.0 S 2 6 1 3 1016.2 1015.9 0.2
24/09:30pm 22.9 26.9 21.4 91 1.0 WSW 2 4 1 2 1016.5 1016.2 0.2
24/09:00pm 23.1 27.0 21.2 89 1.2 SSE 2 9 1 5 1016.4 1016.1 0.2
24/08:30pm 23.5 27.5 21.4 88 1.4 W 2 11 1 6 1016.1 1015.8 0.2
24/08:00pm 23.8 27.7 21.1 85 1.8 ENE 2 6 1 3 1015.9 1015.6 0.2
24/07:30pm 24.3 27.6 20.8 81 2.3 S 4 11 2 6 1015.5 1015.2 0.2
24/07:00pm 24.5 29.0 21.6 84 1.9 CALM 0 0 0 0 1015.0 1014.7 0.2
24/06:30pm 24.7 29.1 21.4 82 2.2 CALM 0 0 0 0 1014.8 1014.5 0.2
24/06:00pm 25.1 29.3 21.8 82 2.2 SSE 2 4 1 2 1014.6 1014.3 0.2
24/05:30pm 25.4 29.9 21.5 79 2.6 CALM 0 0 0 0 1014.2 1013.9 0.2
24/05:00pm 26.1 30.6 21.5 76 3.1 CALM 0 0 0 0 1013.9 1013.6 0.2
24/04:30pm 26.1 30.1 21.3 75 3.2 W 2 2 1 1 1013.7 1013.4 0.2
24/04:00pm 25.9 29.4 21.1 75 3.2 N 4 6 2 3 1013.5 1013.2 0.2
24/03:30pm 26.3 30.4 22.2 78 2.8 WNW 4 6 2 3 1013.3 1013.0 0.2
24/03:00pm 25.4 29.5 22.3 83 2.1 WNW 4 6 2 3 1013.4 1013.1 0.2
24/02:30pm 25.0 29.2 21.7 82 2.2 SSW 2 4 1 2 1013.6 1013.3 0.2
24/02:00pm 26.4 29.0 20.5 70 3.9 ENE 7 13 4 7 1013.6 1013.3 0.0
24/01:30pm 26.8 29.5 20.6 69 4.1 E 7 13 4 7 1014.0 1013.7 0.0
24/01:00pm 27.0 29.0 20.8 69 4.1 E 11 19 6 10 1014.2 1013.9 0.0
24/12:30pm 28.3 30.8 20.3 62 5.3 E 7 15 4 8 1014.7 1014.4 0.0
24/12:00pm 26.9 29.3 20.0 66 4.5 E 7 13 4 7 1015.2 1014.9 0.0
24/11:30am 26.1 28.5 20.9 73 3.4 E 9 15 5 8 1015.6 1015.3 0.0
24/11:00am 26.5 29.7 21.7 75 3.2 ENE 7 11 4 6 1015.9 1015.6 0.0
24/10:30am 26.4 28.8 20.9 72 3.6 E 9 15 5 8 1016.1 1015.8 0.0
24/10:00am 27.7 31.5 21.0 67 4.4 SSE 2 4 1 2 1016.1 1015.8 0.0
24/09:30am 27.6 30.6 20.9 67 4.4 ESE 6 9 3 5 1016.1 1015.8 0.0
24/09:00am 27.4 30.8 21.7 71 3.8 ESE 6 11 3 6 1016.2 1015.9 0.4
24/08:30am 26.4 30.4 22.7 80 2.5 E 6 9 3 5 1016.1 1015.8 0.4
24/08:00am 24.3 29.8 23.4 95 0.6 CALM 0 2 0 1 1016.0 1015.7 0.4
24/07:30am 23.1 28.0 22.4 96 0.5 CALM 0 0 0 0 1015.8 1015.5 0.4
24/07:00am 22.1 26.5 21.4 96 0.5 CALM 0 0 0 0 1015.3 1015.0 0.4
24/06:30am 21.8 26.1 21.1 96 0.5 CALM 0 0 0 0 1015.1 1014.8 0.4
24/06:00am 22.0 26.4 21.3 96 0.5 CALM 0 0 0 0 1014.7 1014.4 0.4
24/05:30am 22.1 26.5 21.4 96 0.5 CALM 0 0 0 0 1014.3 1014.0 0.4
24/05:00am 22.4 27.0 21.7 96 0.5 CALM 0 0 0 0 1014.2 1013.9 0.4
24/04:30am 22.4 27.0 21.7 96 0.5 CALM 0 0 0 0 1014.0 1013.7 0.4
24/04:00am 22.6 27.3 21.9 96 0.5 CALM 0 0 0 0 1013.9 1013.6 0.4
24/03:30am 22.6 27.3 21.9 96 0.5 CALM 0 0 0 0 1013.9 1013.6 0.4
24/03:00am 22.6 27.3 21.9 96 0.5 CALM 0 0 0 0 1014.0 1013.7 0.4
24/02:30am 22.6 27.3 21.9 96 0.5 CALM 0 0 0 0 1014.4 1014.1 0.4
24/02:00am 22.5 27.1 21.7 95 0.5 CALM 0 0 0 0 1014.5 1014.2 0.4
24/01:30am 22.6 27.2 21.8 95 0.5 CALM 0 0 0 0 1014.7 1014.4 0.4
24/01:00am 22.6 27.2 21.8 95 0.5 CALM 0 0 0 0 1015.2 1014.9 0.4
24/12:30am 22.6 27.2 21.8 95 0.5 CALM 0 0 0 0 1015.4 1015.1 0.4
24/12:00am 22.5 27.1 21.7 95 0.5 CALM 0 0 0 0 1015.5 1015.2 0.4
 
Date/Time
EST
Temp
°C
App
Temp
°C
Dew
Point
°C
Rel
Hum
%
Delta-T
°C
Wind Press
QNH
hPa
Press
MSL
hPa
Rain since
9am
mm
Dir  Spd
km/h
Gust
km/h
Spd
kts
Gust
kts
23/11:30pm 22.5 27.0 21.5 94 0.7 CALM 0 0 0 0 1015.9 1015.6 0.4
23/11:00pm 22.7 27.3 21.7 94 0.7 CALM 0 0 0 0 1015.8 1015.5 0.4
23/10:30pm 22.8 27.4 21.8 94 0.7 CALM 0 0 0 0 1016.0 1015.7 0.4
23/10:00pm 22.9 27.6 21.9 94 0.7 CALM 0 0 0 0 1016.3 1016.0 0.4
23/09:30pm 23.0 27.6 21.8 93 0.8 CALM 0 0 0 0 1016.4 1016.1 0.4
23/09:00pm 23.1 27.8 21.9 93 0.8 CALM 0 0 0 0 1016.5 1016.2 0.4
23/08:30pm 23.2 27.8 21.8 92 0.9 CALM 0 0 0 0 1016.5 1016.2 0.4
23/08:00pm 23.4 28.0 21.8 91 1.1 CALM 0 0 0 0 1016.2 1015.9 0.4
23/07:30pm 23.6 27.7 22.2 92 0.9 W 4 6 2 3 1015.9 1015.6 0.4
23/07:00pm 23.7 28.4 22.0 90 1.1 CALM 0 0 0 0 1015.6 1015.3 0.2
23/06:30pm 24.0 28.7 21.9 88 1.4 CALM 0 0 0 0 1015.3 1015.0 0.2
23/06:00pm 24.1 28.2 20.8 82 2.2 CALM 0 0 0 0 1014.9 1014.6 0.2
23/05:30pm 24.5 28.2 20.8 80 2.4 ESE 2 4 1 2 1014.7 1014.4 0.2
23/05:00pm 24.7 28.2 20.4 77 2.8 W 2 4 1 2 1014.5 1014.2 0.2
23/04:30pm 24.4 27.1 20.3 78 2.7 NNW 6 9 3 5 1014.5 1014.2 0.2
23/04:00pm 26.7 28.9 20.3 68 4.2 N 9 22 5 12 1014.3 1014.0 0.2
23/03:30pm 27.0 29.9 20.6 68 4.2 NE 6 11 3 6 1013.9 1013.6 0.2
23/03:00pm 27.2 30.2 20.8 68 4.2 NNE 6 7 3 4 1014.1 1013.8 0.2
23/02:30pm 27.2 30.3 21.0 69 4.1 NNE 6 9 3 5 1014.3 1014.0 0.2
23/02:00pm 27.0 30.0 20.8 69 4.1 NE 6 9 3 5 1014.4 1014.1 0.2
23/01:30pm 27.1 30.9 21.6 72 3.7 NNE 4 6 2 3 1014.7 1014.4 0.2
23/01:00pm 26.2 30.0 21.0 73 3.4 SSE 2 6 1 3 1015.0 1014.7 0.2
23/12:30pm 25.5 28.8 20.7 75 3.2 NE 4 6 2 3 1015.5 1015.2 0.2
23/12:00pm 25.6 29.1 21.1 76 3.0 WNW 4 7 2 4 1016.0 1015.7 0.2
23/11:30am 25.4 28.7 21.5 79 2.6 N 6 9 3 5 1016.2 1015.9 0.2
23/11:00am 25.2 29.0 21.7 81 2.3 NNW 4 7 2 4 1016.7 1016.5 0.2
23/10:30am 24.9 28.7 21.6 82 2.2 NNE 4 6 2 3 1016.8 1016.6 0.2
23/10:00am 24.5 28.5 22.0 86 1.7 NE 4 6 2 3 1017.1 1016.9 0.2
23/09:30am 24.3 29.1 22.2 88 1.4 CALM 0 2 0 1 1017.0 1016.8 0.2
23/09:00am 23.4 27.7 22.0 92 0.9 WNW 2 4 1 2 1017.0 1016.8 12.6
23/08:30am 23.0 26.6 22.0 94 0.7 WNW 6 9 3 5 1017.0 1016.8 12.6
23/08:00am 23.0 27.1 22.2 95 0.5 NE 4 6 2 3 1016.8 1016.6 12.6
23/07:30am 22.6 27.3 21.9 96 0.5 CALM 0 0 0 0 1016.1 1015.8 12.6
23/07:00am 22.2 26.7 21.5 96 0.5 CALM 0 0 0 0 1015.7 1015.4 12.6
23/06:30am 21.9 26.2 21.2 96 0.5 CALM 0 0 0 0 1015.6 1015.3 12.6
23/06:00am 22.0 26.4 21.3 96 0.5 CALM 0 0 0 0 1015.4 1015.1 12.4
23/05:30am 22.2 26.7 21.5 96 0.5 CALM 0 0 0 0 1015.2 1014.9 12.4
23/05:00am 22.2 26.7 21.5 96 0.5 CALM 0 0 0 0 1014.9 1014.6 12.4
23/04:30am 22.3 26.8 21.6 96 0.5 CALM 0 2 0 1 1014.6 1014.3 12.4
23/04:00am 22.3 26.8 21.6 96 0.5 CALM 0 0 0 0 1014.4 1014.1 12.4
23/03:30am 22.3 26.8 21.5 95 0.5 CALM 0 0 0 0 1014.2 1013.9 12.4
23/03:00am 22.3 26.8 21.5 95 0.5 CALM 0 0 0 0 1014.1 1013.8 12.4
23/02:30am 22.3 26.8 21.5 95 0.5 CALM 0 0 0 0 1014.3 1014.0 12.4
23/02:00am 22.4 26.9 21.6 95 0.5 CALM 0 0 0 0 1014.6 1014.3 12.4
23/01:30am 22.4 26.9 21.6 95 0.5 CALM 0 0 0 0 1014.9 1014.6 12.0
23/01:00am 22.4 26.8 21.4 94 0.7 CALM 0 0 0 0 1015.0 1014.7 11.2
23/12:30am 22.4 26.8 21.4 94 0.7 CALM 0 0 0 0 1015.3 1015.0 11.0
23/12:00am 22.6 27.1 21.6 94 0.7 CALM 0 0 0 0 1015.6 1015.3 10.8
 
Date/Time
EST
Temp
°C
App
Temp
°C
Dew
Point
°C
Rel
Hum
%
Delta-T
°C
Wind Press
QNH
hPa
Press
MSL
hPa
Rain since
9am
mm
Dir  Spd
km/h
Gust
km/h
Spd
kts
Gust
kts
22/11:30pm 22.6 27.0 21.4 93 0.8 CALM 0 0 0 0 1015.6 1015.3 10.6
22/11:00pm 22.7 27.2 21.5 93 0.8 CALM 0 0 0 0 1015.7 1015.4 10.6
22/10:30pm 22.8 27.3 21.6 93 0.8 CALM 0 0 0 0 1015.8 1015.5 10.6
22/10:00pm 22.9 27.6 21.9 94 0.7 CALM 0 0 0 0 1016.0 1015.7 10.6
22/09:30pm 22.8 27.3 21.6 93 0.8 CALM 0 0 0 0 1016.1 1015.8 10.6
22/09:00pm 23.1 27.7 21.7 92 0.9 CALM 0 0 0 0 1015.9 1015.6 10.6
22/08:30pm 23.2 27.7 21.6 91 1.1 CALM 0 0 0 0 1015.6 1015.3 10.6
22/08:00pm 23.6 28.3 21.9 90 1.1 CALM 0 0 0 0 1015.4 1015.1 10.6
22/07:30pm 23.9 28.5 21.8 88 1.4 CALM 0 0 0 0 1015.1 1014.8 10.6
22/07:00pm 24.5 28.8 21.2 82 2.2 CALM 0 0 0 0 1014.9 1014.6 10.6
22/06:30pm 25.0 29.4 22.1 84 1.9 NNE 2 4 1 2 1014.7 1014.4 10.6
22/06:00pm 24.9 30.2 23.1 90 1.2 CALM 0 0 0 0 1014.4 1014.1 10.6
22/05:30pm 25.3 30.1 22.2 83 2.1 CALM 0 2 0 1 1014.1 1013.8 10.6
22/05:00pm 25.8 30.7 22.3 81 2.4 CALM 0 0 0 0 1013.9 1013.6 10.6
22/04:30pm 25.9 30.7 22.2 80 2.5 CALM 0 2 0 1 1013.8 1013.5 10.6
22/04:00pm 25.9 30.4 22.2 80 2.5 SE 2 4 1 2 1013.8 1013.5 10.6
22/03:30pm 26.2 30.6 22.1 78 2.8 WSW 2 4 1 2 1013.9 1013.6 10.6
22/03:00pm 25.9 30.4 21.6 77 2.9 CALM 0 2 0 1 1013.9 1013.6 10.6
22/02:30pm 25.5 29.4 21.2 77 2.8 NNE 2 4 1 2 1013.9 1013.6 10.6
22/02:00pm 25.3 29.5 21.8 81 2.3 N 2 6 1 3 1014.0 1013.7 10.6

Other Formats:

Comma delimited format used in spreadsheet applications
http://www.bom.gov.au/fwo/IDQ60801/IDQ60801.95572.axf

JavaScript Object Notation format (JSON) in row-major order
http://www.bom.gov.au/fwo/IDQ60801/IDQ60801.95572.json